Terminal Aerodrome Forecast
Issued by NWS Wilmington, OH

Home | Current Version | Previous Version | Text Only | Print | Product List | Glossary On
Versions: 1 2 3 4 5 6 7 8 9 10 11 12 13 14 15 16 17
000
FTUS41 KILN 281121
TAFILN
TAF
KILN 281121Z 2812/2912 20004KT P6SM FEW250
     FM281500 18010G17KT P6SM FEW050 SCT250
     FM290000 19008KT P6SM SCT250
     FM290700 19008KT P6SM SCT250 WS020/22035KT=

USA.gov is the U.S. government's official web portal to all federal, state and local government web resources and services.